createdAt,value
2023-01-21T00:01:16.906Z,-0.30
2023-01-21T00:03:44.995Z,-0.30
2023-01-21T00:06:15.215Z,-0.40
2023-01-21T00:08:42.467Z,-0.40
2023-01-21T00:11:14.570Z,-0.40
2023-01-21T00:13:43.397Z,-0.40
2023-01-21T00:16:11.303Z,-0.40
2023-01-21T00:18:38.467Z,-0.40
2023-01-21T00:21:05.951Z,-0.50
2023-01-21T00:23:33.074Z,-0.40
2023-01-21T00:26:02.171Z,-0.40
2023-01-21T00:28:31.674Z,-0.40
2023-01-21T00:31:01.186Z,-0.40
2023-01-21T00:33:30.503Z,-0.40
2023-01-21T00:36:20.681Z,-0.40
2023-01-21T00:38:49.382Z,-0.40
2023-01-21T00:41:17.618Z,-0.40
2023-01-21T00:43:45.022Z,-0.40
2023-01-21T00:46:12.361Z,-0.30
2023-01-21T00:48:40.458Z,-0.30
2023-01-21T00:51:07.910Z,-0.30
2023-01-21T00:53:38.366Z,-0.20
2023-01-21T00:56:08.641Z,-0.20
2023-01-21T00:58:36.693Z,-0.20
2023-01-21T01:01:08.289Z,-0.20
2023-01-21T01:03:39.375Z,-0.30
2023-01-21T01:06:16.808Z,-0.20
2023-01-21T01:08:45.636Z,-0.20
2023-01-21T01:11:13.875Z,-0.20
2023-01-21T01:13:41.177Z,-0.20
2023-01-21T01:16:09.994Z,-0.20
2023-01-21T01:18:38.002Z,-0.20
2023-01-21T01:21:06.139Z,-0.20
2023-01-21T01:23:33.662Z,-0.10
2023-01-21T01:26:04.507Z,-0.10
2023-01-21T01:28:33.082Z,-0.10
2023-01-21T01:31:01.640Z,-0.20
2023-01-21T01:33:29.024Z,-0.20
2023-01-21T01:36:01.686Z,-0.20
2023-01-21T01:38:28.877Z,-0.10
2023-01-21T01:40:56.000Z,-0.20
2023-01-21T01:43:46.299Z,-0.20
2023-01-21T01:46:13.526Z,-0.10
2023-01-21T01:48:43.260Z,-0.10
2023-01-21T01:51:12.210Z,0.00
2023-01-21T01:53:44.451Z,-0.10
2023-01-21T01:56:12.396Z,-0.20
2023-01-21T01:58:40.289Z,-0.30
2023-01-21T02:01:07.481Z,-0.40
2023-01-21T02:03:44.446Z,-0.40
2023-01-21T02:06:16.819Z,-0.40
2023-01-21T02:08:47.371Z,-0.40
2023-01-21T02:11:17.899Z,-0.50
2023-01-21T02:13:54.014Z,-0.50
2023-01-21T02:16:27.228Z,-0.70
2023-01-21T02:19:33.243Z,-0.80
2023-01-21T02:22:30.377Z,-0.90
2023-01-21T02:25:44.643Z,-1.00
2023-01-21T02:28:47.959Z,-1.30
2023-01-21T02:31:31.671Z,-1.40
2023-01-21T02:34:36.197Z,-1.40
2023-01-21T02:37:13.720Z,-1.40
2023-01-21T02:40:21.605Z,-1.50
2023-01-21T02:43:15.423Z,-1.40
2023-01-21T02:46:12.832Z,-1.20
2023-01-21T02:49:23.359Z,-1.10
2023-01-21T02:51:50.665Z,-1.10
2023-01-21T02:54:39.544Z,-1.20
2023-01-21T02:57:15.261Z,-1.20
2023-01-21T02:59:48.372Z,-1.10
2023-01-21T03:02:51.661Z,-1.00
2023-01-21T03:05:59.153Z,-1.00
2023-01-21T03:08:38.448Z,-0.90
2023-01-21T03:11:21.506Z,-0.90
2023-01-21T03:14:18.089Z,-1.20
2023-01-21T03:16:58.879Z,-1.10
2023-01-21T03:19:48.230Z,-1.10
2023-01-21T03:22:20.923Z,-1.20
2023-01-21T03:24:52.102Z,-1.20
2023-01-21T03:27:23.830Z,-1.20
2023-01-21T03:29:59.607Z,-1.30
2023-01-21T03:32:29.257Z,-1.20
2023-01-21T03:34:57.923Z,-1.20
2023-01-21T03:37:41.187Z,-1.20
2023-01-21T03:40:16.237Z,-1.30
2023-01-21T03:42:45.209Z,-1.20
2023-01-21T03:45:13.931Z,-1.20
2023-01-21T03:47:50.506Z,-1.20
2023-01-21T03:50:19.889Z,-1.20
2023-01-21T03:52:47.356Z,-1.10
2023-01-21T03:55:16.604Z,-1.10
2023-01-21T03:57:43.744Z,-1.20
2023-01-21T04:00:12.411Z,-1.30
2023-01-21T04:02:40.074Z,-1.40
2023-01-21T04:05:08.186Z,-1.40
2023-01-21T04:07:35.367Z,-1.50
2023-01-21T04:10:02.533Z,-1.50
2023-01-21T04:12:29.621Z,-1.60
2023-01-21T04:14:57.248Z,-1.60
2023-01-21T04:17:24.352Z,-1.80
2023-01-21T04:19:52.610Z,-1.90
2023-01-21T04:22:20.733Z,-2.10
2023-01-21T04:24:47.948Z,-2.10
2023-01-21T04:27:15.020Z,-2.20
2023-01-21T04:29:42.082Z,-2.20
2023-01-21T04:32:09.184Z,-2.40
2023-01-21T04:34:36.253Z,-2.40
2023-01-21T04:37:03.423Z,-2.50
2023-01-21T04:39:30.580Z,-2.40
2023-01-21T04:41:57.646Z,-2.40
2023-01-21T04:44:24.764Z,-2.50
2023-01-21T04:46:51.995Z,-2.40
2023-01-21T04:49:19.179Z,-2.40
2023-01-21T04:51:46.231Z,-2.40
2023-01-21T04:54:13.551Z,-2.40
2023-01-21T04:56:40.629Z,-2.50
2023-01-21T04:59:07.749Z,-2.50
2023-01-21T05:01:34.894Z,-2.60
2023-01-21T05:04:02.039Z,-2.60
2023-01-21T05:06:29.189Z,-2.70
2023-01-21T05:08:56.336Z,-2.80
2023-01-21T05:11:24.027Z,-2.80
2023-01-21T05:13:51.079Z,-2.80
2023-01-21T05:16:18.249Z,-2.80
2023-01-21T05:18:46.818Z,-2.90
2023-01-21T05:21:13.996Z,-2.80
2023-01-21T05:23:41.087Z,-2.80
2023-01-21T05:26:08.327Z,-2.80
2023-01-21T05:28:36.919Z,-2.90
2023-01-21T05:31:04.331Z,-2.90
2023-01-21T05:33:35.687Z,-2.90
2023-01-21T05:36:04.806Z,-2.90
2023-01-21T05:38:31.952Z,-3.00
2023-01-21T05:41:03.904Z,-3.00
2023-01-21T05:43:31.416Z,-3.00
2023-01-21T05:45:58.565Z,-3.10
2023-01-21T05:48:25.812Z,-3.20
2023-01-21T05:50:53.010Z,-3.20
2023-01-21T05:53:20.156Z,-3.40
2023-01-21T05:55:51.571Z,-3.60
2023-01-21T05:58:18.841Z,-3.70
2023-01-21T06:00:55.911Z,-3.90
2023-01-21T06:03:24.551Z,-4.20
2023-01-21T06:05:51.845Z,-4.20
2023-01-21T06:08:19.446Z,-4.30
2023-01-21T06:10:46.728Z,-4.50
2023-01-21T06:13:15.984Z,-4.70
2023-01-21T06:15:43.531Z,-4.80
2023-01-21T06:18:10.860Z,-4.90
2023-01-21T06:20:38.060Z,-5.00
2023-01-21T06:23:05.664Z,-5.00
2023-01-21T06:25:33.565Z,-4.90
2023-01-21T06:28:01.440Z,-5.00
2023-01-21T06:30:28.893Z,-5.10
2023-01-21T06:32:56.157Z,-5.20
2023-01-21T06:35:23.767Z,-5.20
2023-01-21T06:37:51.094Z,-5.30
2023-01-21T06:40:18.651Z,-5.30
2023-01-21T06:42:49.182Z,-5.20
2023-01-21T06:45:17.382Z,-5.20
2023-01-21T06:47:45.491Z,-5.10
2023-01-21T06:50:16.490Z,-5.00
2023-01-21T06:52:46.887Z,-4.80
2023-01-21T06:55:15.191Z,-4.70
2023-01-21T06:57:44.024Z,-4.60
2023-01-21T07:00:12.788Z,-4.50
2023-01-21T07:02:40.046Z,-4.40
2023-01-21T07:05:07.800Z,-4.40
2023-01-21T07:07:35.146Z,-4.30
2023-01-21T07:10:02.385Z,-4.10
2023-01-21T07:12:29.478Z,-4.10
2023-01-21T07:14:56.738Z,-4.00
2023-01-21T07:17:24.003Z,-4.00
2023-01-21T07:19:51.086Z,-3.90
2023-01-21T07:22:18.220Z,-3.90
2023-01-21T07:24:45.324Z,-3.80
2023-01-21T07:27:12.411Z,-3.80
2023-01-21T07:29:39.565Z,-3.80
2023-01-21T07:32:06.740Z,-3.80
2023-01-21T07:34:33.947Z,-3.80
2023-01-21T07:37:01.093Z,-3.70
2023-01-21T07:39:28.195Z,-3.60
2023-01-21T07:41:55.225Z,-3.60
2023-01-21T07:44:22.367Z,-3.50
2023-01-21T07:46:49.555Z,-3.50
2023-01-21T07:49:18.353Z,-3.50
2023-01-21T07:51:46.350Z,-3.40
2023-01-21T07:54:14.675Z,-3.40
2023-01-21T07:56:42.253Z,-3.40
2023-01-21T07:59:11.587Z,-3.40
2023-01-21T08:01:38.862Z,-3.40
2023-01-21T08:04:07.230Z,-3.20
2023-01-21T08:06:34.450Z,-3.20
2023-01-21T08:09:01.551Z,-3.20
2023-01-21T08:11:29.833Z,-3.30
2023-01-21T08:13:57.040Z,-3.30
2023-01-21T08:16:24.464Z,-3.20
2023-01-21T08:18:51.663Z,-3.00
2023-01-21T08:21:20.988Z,-3.00
2023-01-21T08:23:48.108Z,-3.00
2023-01-21T08:26:17.822Z,-2.90
2023-01-21T08:28:44.987Z,-2.80
2023-01-21T08:31:13.440Z,-2.90
2023-01-21T08:33:40.677Z,-2.80
2023-01-21T08:36:09.457Z,-2.70
2023-01-21T08:38:37.339Z,-2.70
2023-01-21T08:41:04.919Z,-2.60
2023-01-21T08:43:32.064Z,-2.60
2023-01-21T08:46:01.658Z,-2.50
2023-01-21T08:48:30.182Z,-2.50
2023-01-21T08:51:00.825Z,-2.40
2023-01-21T08:53:27.989Z,-2.30
2023-01-21T08:56:02.878Z,-2.30
2023-01-21T08:58:31.468Z,-2.30
2023-01-21T09:00:58.821Z,-2.20
2023-01-21T09:03:26.043Z,-2.20
2023-01-21T09:05:53.179Z,-2.20
2023-01-21T09:08:20.298Z,-2.20
2023-01-21T09:11:02.663Z,-2.20
2023-01-21T09:13:38.691Z,-2.10
2023-01-21T09:16:28.584Z,-2.10
2023-01-21T09:18:56.842Z,-2.10
2023-01-21T09:21:23.901Z,-2.20
2023-01-21T09:23:50.971Z,-2.10
2023-01-21T09:26:21.041Z,-2.00
2023-01-21T09:29:02.151Z,-2.00
2023-01-21T09:31:31.170Z,-2.00
2023-01-21T09:34:04.119Z,-2.00
2023-01-21T09:36:34.181Z,-1.90
2023-01-21T09:39:01.411Z,-1.80
2023-01-21T09:41:51.954Z,-1.80
2023-01-21T09:44:29.428Z,-1.80
2023-01-21T09:47:04.652Z,-1.80
2023-01-21T09:49:41.712Z,-1.80
2023-01-21T09:52:22.384Z,-1.70
2023-01-21T09:54:50.984Z,-1.70
2023-01-21T09:58:07.318Z,-1.60
2023-01-21T10:00:44.075Z,-1.50
2023-01-21T10:03:57.879Z,-1.60
2023-01-21T10:07:09.689Z,-1.60
2023-01-21T10:10:18.638Z,-1.40
2023-01-21T10:13:00.988Z,-1.50
2023-01-21T10:15:57.649Z,-1.50
2023-01-21T10:18:30.904Z,-1.40
2023-01-21T10:21:17.148Z,-1.20
2023-01-21T10:23:53.614Z,-1.20
2023-01-21T10:26:20.869Z,-1.20
2023-01-21T10:28:54.694Z,-1.20
2023-01-21T10:31:29.403Z,-1.10
2023-01-21T10:33:57.068Z,-1.10
2023-01-21T10:37:27.458Z,-1.10
2023-01-21T10:39:59.745Z,-1.10
2023-01-21T10:42:38.168Z,-1.00
2023-01-21T10:45:36.726Z,-0.90
2023-01-21T10:48:36.689Z,-0.80
2023-01-21T10:51:26.151Z,-0.80
2023-01-21T10:54:02.068Z,-0.70
2023-01-21T10:57:27.053Z,-1.00
2023-01-21T10:59:57.328Z,-1.00
2023-01-21T11:02:33.928Z,-1.10
2023-01-21T11:05:05.095Z,-1.00
2023-01-21T11:07:42.472Z,-1.10
2023-01-21T11:10:14.974Z,-0.90
2023-01-21T11:12:43.336Z,-0.80
2023-01-21T11:15:20.253Z,-0.80
2023-01-21T11:17:53.864Z,-0.80
2023-01-21T11:20:36.369Z,-0.70
2023-01-21T11:23:07.931Z,-0.60
2023-01-21T11:25:41.490Z,-0.60
2023-01-21T11:28:27.188Z,-0.60
2023-01-21T11:31:34.191Z,-0.50
2023-01-21T11:34:17.100Z,-0.40
2023-01-21T11:37:02.768Z,-0.40
2023-01-21T11:39:50.160Z,-0.40
2023-01-21T11:42:19.519Z,-0.40
2023-01-21T11:45:04.419Z,-0.40
2023-01-21T11:47:51.313Z,-0.40
2023-01-21T11:50:37.722Z,-0.50
2023-01-21T11:53:11.541Z,-0.50
2023-01-21T11:55:50.374Z,-0.50
2023-01-21T11:58:18.795Z,-0.50
2023-01-21T12:00:48.351Z,-0.50
2023-01-21T12:03:21.416Z,-0.50
2023-01-21T12:05:53.737Z,-0.50
2023-01-21T12:08:27.114Z,-0.50
2023-01-21T12:10:57.980Z,-0.50
2023-01-21T12:13:46.057Z,-0.50
2023-01-21T12:16:31.936Z,-0.50
2023-01-21T12:19:34.390Z,-0.40
2023-01-21T12:22:22.533Z,-0.50
2023-01-21T12:25:40.953Z,-0.40
2023-01-21T12:28:26.730Z,-0.40
2023-01-21T12:31:23.885Z,-0.40
2023-01-21T12:33:59.349Z,-0.40
2023-01-21T12:36:36.725Z,-0.30
2023-01-21T12:39:27.754Z,-0.20
2023-01-21T12:42:23.509Z,-0.10
2023-01-21T12:45:32.708Z,-0.30
2023-01-21T12:48:23.105Z,-0.30
2023-01-21T12:51:00.655Z,-0.30
2023-01-21T12:53:44.739Z,-0.30
2023-01-21T12:56:14.933Z,-0.30
2023-01-21T12:59:21.085Z,-0.30
2023-01-21T13:02:25.304Z,-0.30
2023-01-21T13:05:17.583Z,-0.20
2023-01-21T13:08:35.616Z,-0.20
2023-01-21T13:11:29.452Z,-0.10
2023-01-21T13:14:08.965Z,0.00
2023-01-21T13:16:42.088Z,0.00
2023-01-21T13:19:13.678Z,-0.10
2023-01-21T13:21:49.550Z,-0.10
2023-01-21T13:24:40.082Z,0.00
2023-01-21T13:27:36.278Z,-0.10
2023-01-21T13:30:23.061Z,-0.10
2023-01-21T13:33:23.616Z,-0.20
2023-01-21T13:36:32.492Z,-0.30
2023-01-21T13:39:14.810Z,-0.20
2023-01-21T13:42:24.201Z,-0.20
2023-01-21T13:45:08.223Z,-0.30
2023-01-21T13:48:54.773Z,-0.40
2023-01-21T13:51:51.436Z,-0.40
2023-01-21T13:54:43.901Z,-0.50
2023-01-21T13:57:38.788Z,-0.60
2023-01-21T14:00:15.123Z,-0.50
2023-01-21T14:02:57.364Z,-0.50
2023-01-21T14:05:53.611Z,-0.50
2023-01-21T14:08:46.247Z,-0.50
2023-01-21T14:11:49.922Z,-0.30
2023-01-21T14:15:00.150Z,-0.40
2023-01-21T14:17:44.999Z,-0.30
2023-01-21T14:20:52.609Z,-0.30
2023-01-21T14:23:49.608Z,-0.40
2023-01-21T14:26:49.964Z,-0.30
2023-01-21T14:29:38.683Z,-0.40
2023-01-21T14:32:35.705Z,-0.40
2023-01-21T14:35:24.444Z,-0.40
2023-01-21T14:38:24.468Z,-0.40
2023-01-21T14:41:05.747Z,-0.50
2023-01-21T14:43:32.815Z,-0.50
2023-01-21T14:46:01.357Z,-0.40
2023-01-21T14:49:16.330Z,-0.40
2023-01-21T14:51:52.630Z,-0.40
2023-01-21T14:54:27.844Z,-0.50
2023-01-21T14:57:13.555Z,-0.50
2023-01-21T14:59:46.517Z,-0.50
2023-01-21T15:02:24.074Z,-0.60
2023-01-21T15:05:30.692Z,-0.60
2023-01-21T15:08:31.463Z,-0.60
2023-01-21T15:11:20.443Z,-0.60
2023-01-21T15:14:11.118Z,-0.70
2023-01-21T15:16:44.176Z,-0.60
2023-01-21T15:19:28.231Z,-0.60
2023-01-21T15:22:21.253Z,-0.70
2023-01-21T15:25:20.647Z,-0.80
2023-01-21T15:28:26.092Z,-0.80
2023-01-21T15:31:03.714Z,-0.80
2023-01-21T15:33:36.737Z,-0.80
2023-01-21T15:36:05.618Z,-0.80
2023-01-21T15:38:41.428Z,-0.90
2023-01-21T15:41:25.017Z,-1.00
2023-01-21T15:44:02.795Z,-0.90
2023-01-21T15:47:04.145Z,-0.80
2023-01-21T15:50:21.668Z,-0.80
2023-01-21T15:53:06.045Z,-0.80
2023-01-21T15:56:27.362Z,-0.80
2023-01-21T16:00:01.640Z,-0.80
2023-01-21T16:02:33.997Z,-0.80
2023-01-21T16:05:29.595Z,-0.90
2023-01-21T16:08:51.987Z,-1.00
2023-01-21T16:11:29.756Z,-0.90
2023-01-21T16:14:21.598Z,-0.90
2023-01-21T16:17:19.409Z,-1.00
2023-01-21T16:19:52.095Z,-1.00
2023-01-21T16:22:28.754Z,-1.00
2023-01-21T16:25:05.729Z,-1.10
2023-01-21T16:27:32.966Z,-1.10
2023-01-21T16:30:07.953Z,-1.10
2023-01-21T16:32:37.131Z,-1.10
2023-01-21T16:35:05.255Z,-1.10
2023-01-21T16:37:33.203Z,-1.10
2023-01-21T16:40:09.300Z,-1.10
2023-01-21T16:42:40.965Z,-1.10
2023-01-21T16:45:20.532Z,-1.10
2023-01-21T16:47:57.116Z,-1.10
2023-01-21T16:50:27.844Z,-1.00
2023-01-21T16:52:58.636Z,-1.10
2023-01-21T16:55:30.361Z,-1.10
2023-01-21T16:58:00.017Z,-1.10
2023-01-21T17:00:32.246Z,-1.10
2023-01-21T17:03:00.871Z,-1.00
2023-01-21T17:05:34.704Z,-1.00
2023-01-21T17:08:04.576Z,-1.10
2023-01-21T17:10:39.591Z,-1.00
2023-01-21T17:13:16.039Z,-0.90
2023-01-21T17:15:57.580Z,-0.90
2023-01-21T17:18:31.166Z,-0.90
2023-01-21T17:21:12.604Z,-0.90
2023-01-21T17:23:49.365Z,-0.80
2023-01-21T17:26:26.652Z,-0.80
2023-01-21T17:28:59.869Z,-0.80
2023-01-21T17:31:54.957Z,-0.80
2023-01-21T17:34:31.241Z,-0.80
2023-01-21T17:36:58.686Z,-0.80
2023-01-21T17:39:46.841Z,-0.80
2023-01-21T17:42:23.510Z,-0.80
2023-01-21T17:45:05.976Z,-0.90
2023-01-21T17:47:59.485Z,-0.90
2023-01-21T17:50:32.013Z,-0.90
2023-01-21T17:53:07.209Z,-0.90
2023-01-21T17:55:39.580Z,-0.80
2023-01-21T17:58:32.366Z,-0.80
2023-01-21T18:01:04.258Z,-0.80
2023-01-21T18:03:31.353Z,-0.90
2023-01-21T18:05:58.837Z,-0.90
2023-01-21T18:08:25.915Z,-0.90
2023-01-21T18:10:52.949Z,-0.90
2023-01-21T18:13:22.323Z,-0.90
2023-01-21T18:15:51.801Z,-0.90
2023-01-21T18:18:30.279Z,-0.90
2023-01-21T18:20:57.668Z,-1.00
2023-01-21T18:23:24.774Z,-1.00
2023-01-21T18:25:53.690Z,-1.00
2023-01-21T18:28:26.169Z,-1.00
2023-01-21T18:30:57.910Z,-1.10
2023-01-21T18:33:25.970Z,-1.20
2023-01-21T18:35:53.641Z,-1.20
2023-01-21T18:38:30.627Z,-1.30
2023-01-21T18:40:59.409Z,-1.30
2023-01-21T18:43:26.686Z,-1.30
2023-01-21T18:45:54.661Z,-1.30
2023-01-21T18:48:28.348Z,-1.30
2023-01-21T18:50:55.581Z,-1.30
2023-01-21T18:53:22.774Z,-1.20
2023-01-21T18:55:53.891Z,-1.20
2023-01-21T18:58:21.229Z,-1.10
2023-01-21T19:00:49.121Z,-1.10
2023-01-21T19:03:16.860Z,-1.10
2023-01-21T19:05:49.534Z,-1.10
2023-01-21T19:08:22.697Z,-1.10
2023-01-21T19:10:49.852Z,-1.10
2023-01-21T19:13:17.483Z,-1.00
2023-01-21T19:15:47.698Z,-0.90
2023-01-21T19:18:16.847Z,-0.90
2023-01-21T19:20:44.322Z,-0.90
2023-01-21T19:23:17.802Z,-1.00
2023-01-21T19:25:56.540Z,-1.00
2023-01-21T19:28:25.045Z,-1.00
2023-01-21T19:30:55.567Z,-1.00
2023-01-21T19:33:23.947Z,-0.90
2023-01-21T19:36:20.560Z,-0.90
2023-01-21T19:38:54.725Z,-0.90
2023-01-21T19:41:22.078Z,-0.90
2023-01-21T19:43:49.253Z,-0.90
2023-01-21T19:46:17.178Z,-0.90
2023-01-21T19:48:44.567Z,-1.00
2023-01-21T19:51:11.823Z,-1.00
2023-01-21T19:53:39.320Z,-0.90
2023-01-21T19:56:14.592Z,-0.90
2023-01-21T19:58:42.287Z,-0.80
2023-01-21T20:01:09.393Z,-0.80
2023-01-21T20:03:36.508Z,-0.90
2023-01-21T20:06:03.773Z,-0.90
2023-01-21T20:08:32.183Z,-0.70
2023-01-21T20:10:59.355Z,-0.80
2023-01-21T20:13:28.591Z,-0.80
2023-01-21T20:15:55.991Z,-0.80
2023-01-21T20:18:26.967Z,-0.80
2023-01-21T20:20:54.953Z,-0.80
2023-01-21T20:23:23.467Z,-0.80
2023-01-21T20:25:54.615Z,-0.80
2023-01-21T20:28:36.029Z,-0.80
2023-01-21T20:31:06.617Z,-0.70
2023-01-21T20:33:35.815Z,-0.70
2023-01-21T20:36:06.786Z,-0.70
2023-01-21T20:38:37.161Z,-0.70
2023-01-21T20:41:05.840Z,-0.80
2023-01-21T20:43:33.255Z,-0.70
2023-01-21T20:46:04.679Z,-0.70
2023-01-21T20:48:37.560Z,-0.80
2023-01-21T20:51:05.154Z,-0.70
2023-01-21T20:53:32.839Z,-0.80
2023-01-21T20:56:14.543Z,-0.90
2023-01-21T20:58:45.000Z,-0.80
2023-01-21T21:01:13.196Z,-0.80
2023-01-21T21:03:40.364Z,-0.80
2023-01-21T21:06:22.328Z,-0.80
2023-01-21T21:08:50.835Z,-0.80
2023-01-21T21:11:19.287Z,-0.90
2023-01-21T21:13:50.486Z,-1.00
2023-01-21T21:16:20.424Z,-1.00
2023-01-21T21:18:48.936Z,-1.00
2023-01-21T21:21:18.189Z,-1.00
2023-01-21T21:23:46.861Z,-0.90
2023-01-21T21:26:27.525Z,-0.90
2023-01-21T21:28:55.871Z,-0.90
2023-01-21T21:31:24.006Z,-0.80
2023-01-21T21:33:51.947Z,-0.80
2023-01-21T21:36:22.627Z,-0.80
2023-01-21T21:38:52.193Z,-0.80
2023-01-21T21:41:41.729Z,-0.80
2023-01-21T21:44:19.936Z,-0.80
2023-01-21T21:47:05.662Z,-0.80
2023-01-21T21:49:33.233Z,-0.80
2023-01-21T21:52:01.085Z,-0.50
2023-01-21T21:54:28.218Z,-0.80
2023-01-21T21:56:56.006Z,-0.80
2023-01-21T21:59:23.338Z,-0.80
2023-01-21T22:01:50.519Z,-0.80
2023-01-21T22:04:17.668Z,-0.90
2023-01-21T22:06:44.714Z,-0.90
2023-01-21T22:09:12.130Z,-0.90
2023-01-21T22:11:40.407Z,-1.00
2023-01-21T22:14:08.093Z,-0.90
2023-01-21T22:16:35.485Z,-0.90
2023-01-21T22:19:03.917Z,-0.90
2023-01-21T22:21:33.923Z,-0.90
2023-01-21T22:24:03.930Z,-0.80
2023-01-21T22:26:33.621Z,-0.80
2023-01-21T22:29:00.838Z,-0.80
2023-01-21T22:31:31.155Z,-0.80
2023-01-21T22:33:59.506Z,-0.90
2023-01-21T22:36:29.742Z,-0.90
2023-01-21T22:38:56.948Z,-0.80
2023-01-21T22:41:25.648Z,-0.80
2023-01-21T22:43:53.596Z,-0.80
2023-01-21T22:46:27.292Z,-0.70
2023-01-21T22:48:55.051Z,-0.70
2023-01-21T22:51:23.175Z,-0.70
2023-01-21T22:53:50.914Z,-0.70
2023-01-21T22:56:23.437Z,-0.70
2023-01-21T22:58:52.774Z,-0.70
2023-01-21T23:01:31.664Z,-0.60
2023-01-21T23:04:00.536Z,-0.70
2023-01-21T23:06:28.015Z,-0.70
2023-01-21T23:08:55.824Z,-0.70
2023-01-21T23:11:23.270Z,-0.70
2023-01-21T23:13:53.117Z,-0.70
2023-01-21T23:16:21.283Z,-0.70
2023-01-21T23:18:48.940Z,-0.60
2023-01-21T23:21:22.430Z,-0.60
2023-01-21T23:23:51.001Z,-0.60
2023-01-21T23:26:19.703Z,-0.60
2023-01-21T23:28:47.333Z,-0.50
2023-01-21T23:31:17.362Z,-0.50
2023-01-21T23:33:48.450Z,-0.50
2023-01-21T23:36:15.859Z,-0.50
2023-01-21T23:38:43.337Z,-0.60
2023-01-21T23:41:14.456Z,-0.50
2023-01-21T23:43:41.661Z,-0.40
2023-01-21T23:46:16.580Z,-0.40
2023-01-21T23:48:44.157Z,-0.30
2023-01-21T23:51:14.561Z,-0.30
2023-01-21T23:53:45.461Z,-0.30
2023-01-21T23:56:20.802Z,-0.40
2023-01-21T23:58:49.705Z,-0.40
